Browning, MT (59417)

9:54 AM MDT on September 30, 2014 (GMT -0600)
De La Salle Blackfeet School | Change Station
CLOSE
Current Station
Personal Weather Station
Location: Browning, MT
Elevation: 4367 ft
Nearby Weather Stations

Elev 4367 ft 48.56 °N, 113.02 °W | Updated 3 seconds ago

Mostly Cloudy
Mostly Cloudy
55.0 °F
Feels Like 55.0 °F
N
15.0
Wind Variable Wind from WSW
Gusts 25.0 mph

Today
High -- | Low -- °F
--% Chance of Precip.
Yesterday
High -- | Low -- °F
Precip. -- in
7:29 AM 7:12 PM
Waxing Crescent, 37% visible
Pressure 29.62 in
Visibility 10.0 miles
Clouds Scattered Clouds 8500 ft
Dew Point 44 °F
Humidity 65%
Rainfall 0.00 in
Snow Depth 0 in , 0 in , 0 in
UV 1 out of 12
Pollen 1.10 out of 12
Air Quality Not available.
Flu Activity Not available.
METAR KCTB 301456Z AUTO 26015KT 10SM SCT085 13/06 A2967 RMK AO2 SLP031 T01330056 53008

More Conditions Fewer Conditions

Pressure 29.62 in
Visibility 10.0 miles
Clouds Scattered Clouds 8500 ft
Dew Point 44 °F
Humidity 65%
Rainfall 0.00 in
Snow Depth 0 in , 0 in , 0 in
UV 1 out of 12
Pollen 1.10 out of 12
Air Quality Not available.
Flu Activity Not available.
METAR KCTB 301456Z AUTO 26015KT 10SM SCT085 13/06 A2967 RMK AO2 SLP031 T01330056 53008

More Conditions Fewer Conditions

10-Day Weather Forecast

Almanac

Astronomy

Sep. 30, 2014 Rise Set
Actual Time 7:29 AM MDT 7:12 PM MDT
Civil Twilight 6:58 AM MDT 7:43 PM MDT
Nautical Twilight 6:22 AM MDT 8:20 PM MDT
Astronomical Twilight 5:44 AM MDT 8:57 PM MDT
Moon 2:03 PM MDT 11:25 PM MDT
Length of Visible Light 12h 45m
Length of Day
11h 42m
Tomorrow will be 3m 30s shorter.
Waxing Crescent, 37% of the Moon is Illuminated
Today
Waxing Crescent
Oct 1
First Quarter
Oct 8
Full
Oct 15
Last Quarter
Oct 23
New

Today's Extremes

State Highs State Lows

Community

WunderPhotos

Upload Photos

1,757,671 photos uploaded!

Nearby

Snow Depth

Station Depth Elevation
Frohner Meadow 0 in 6480 ft
Lower Twin 0 in 7900 ft
Moss Peak 0 in 6780 ft
Black Bear 0 in 8150 ft
White Mill 0 in 8700 ft

Earthquake Activity

City Distance Mag. Time & Date
Lincoln, Montana 116 miles 3.6 10:42 PM MDT
2014-09-27
Minimum magnitude displayed is 2.5.

Coastal Water Temperatures

Place Temperature
No Stations Reporting

Nearby Weather Stations